sensor_id;sensor_type;location;lat;lon;timestamp;temperature;humidity
31661;DHT22;18267;52.234;7.444;2023-04-24T00:00:34;12.70;99.90
31661;DHT22;18267;52.234;7.444;2023-04-24T00:02:59;12.80;99.90
31661;DHT22;18267;52.234;7.444;2023-04-24T00:05:25;12.80;99.90
31661;DHT22;18267;52.234;7.444;2023-04-24T00:07:52;12.70;99.90
31661;DHT22;18267;52.234;7.444;2023-04-24T00:10:18;12.60;99.90
31661;DHT22;18267;52.234;7.444;2023-04-24T00:12:44;12.70;99.90
31661;DHT22;18267;52.234;7.444;2023-04-24T00:15:10;12.70;99.90
31661;DHT22;18267;52.234;7.444;2023-04-24T00:17:36;12.80;99.90
31661;DHT22;18267;52.234;7.444;2023-04-24T00:20:02;12.60;99.90
31661;DHT22;18267;52.234;7.444;2023-04-24T00:22:31;12.70;99.90
31661;DHT22;18267;52.234;7.444;2023-04-24T00:24:58;12.70;99.90
31661;DHT22;18267;52.234;7.444;2023-04-24T00:27:24;12.70;99.90
31661;DHT22;18267;52.234;7.444;2023-04-24T00:29:50;12.70;99.90
31661;DHT22;18267;52.234;7.444;2023-04-24T00:32:15;12.70;99.90
31661;DHT22;18267;52.234;7.444;2023-04-24T00:34:41;12.70;99.90
31661;DHT22;18267;52.234;7.444;2023-04-24T00:37:07;12.60;99.90
31661;DHT22;18267;52.234;7.444;2023-04-24T00:39:32;12.60;99.90
31661;DHT22;18267;52.234;7.444;2023-04-24T00:41:58;12.50;99.90
31661;DHT22;18267;52.234;7.444;2023-04-24T00:44:24;12.50;99.90
31661;DHT22;18267;52.234;7.444;2023-04-24T00:46:50;12.60;99.90
31661;DHT22;18267;52.234;7.444;2023-04-24T00:49:20;12.50;99.90
31661;DHT22;18267;52.234;7.444;2023-04-24T00:51:46;12.50;99.90
31661;DHT22;18267;52.234;7.444;2023-04-24T00:54:13;12.50;99.90
31661;DHT22;18267;52.234;7.444;2023-04-24T00:56:39;12.50;99.90
31661;DHT22;18267;52.234;7.444;2023-04-24T00:59:05;12.50;99.90
31661;DHT22;18267;52.234;7.444;2023-04-24T01:01:31;12.50;99.90
31661;DHT22;18267;52.234;7.444;2023-04-24T01:03:59;12.50;99.90
31661;DHT22;18267;52.234;7.444;2023-04-24T01:06:27;12.50;99.90
31661;DHT22;18267;52.234;7.444;2023-04-24T01:08:54;12.40;99.90
31661;DHT22;18267;52.234;7.444;2023-04-24T01:11:21;12.40;99.90
31661;DHT22;18267;52.234;7.444;2023-04-24T01:13:48;12.30;99.90
31661;DHT22;18267;52.234;7.444;2023-04-24T01:16:14;12.30;99.90
31661;DHT22;18267;52.234;7.444;2023-04-24T01:18:40;12.40;99.90
31661;DHT22;18267;52.234;7.444;2023-04-24T01:21:08;12.50;99.90
31661;DHT22;18267;52.234;7.444;2023-04-24T01:23:34;12.60;99.90
31661;DHT22;18267;52.234;7.444;2023-04-24T01:26:00;12.50;99.90
31661;DHT22;18267;52.234;7.444;2023-04-24T01:28:26;12.40;99.90
31661;DHT22;18267;52.234;7.444;2023-04-24T01:30:52;12.30;99.90
31661;DHT22;18267;52.234;7.444;2023-04-24T01:33:21;12.40;99.90
31661;DHT22;18267;52.234;7.444;2023-04-24T01:35:47;12.30;99.90
31661;DHT22;18267;52.234;7.444;2023-04-24T01:38:12;12.30;99.90
31661;DHT22;18267;52.234;7.444;2023-04-24T01:40:38;12.30;99.90
31661;DHT22;18267;52.234;7.444;2023-04-24T01:43:03;12.40;99.90
31661;DHT22;18267;52.234;7.444;2023-04-24T01:45:29;12.40;99.90
31661;DHT22;18267;52.234;7.444;2023-04-24T01:47:55;12.40;99.90
31661;DHT22;18267;52.234;7.444;2023-04-24T01:50:21;12.40;99.90
31661;DHT22;18267;52.234;7.444;2023-04-24T01:52:46;12.40;99.90
31661;DHT22;18267;52.234;7.444;2023-04-24T01:55:12;12.50;99.90
31661;DHT22;18267;52.234;7.444;2023-04-24T01:57:38;12.40;99.90
31661;DHT22;18267;52.234;7.444;2023-04-24T02:00:04;12.30;99.90
31661;DHT22;18267;52.234;7.444;2023-04-24T02:02:31;12.30;99.90
31661;DHT22;18267;52.234;7.444;2023-04-24T02:04:57;12.40;99.90
31661;DHT22;18267;52.234;7.444;2023-04-24T02:07:23;12.40;99.90
31661;DHT22;18267;52.234;7.444;2023-04-24T02:09:48;12.40;99.90
31661;DHT22;18267;52.234;7.444;2023-04-24T02:12:15;12.50;99.90
31661;DHT22;18267;52.234;7.444;2023-04-24T02:14:40;12.50;99.90
31661;DHT22;18267;52.234;7.444;2023-04-24T02:17:09;12.40;99.90
31661;DHT22;18267;52.234;7.444;2023-04-24T02:19:34;12.40;99.90
31661;DHT22;18267;52.234;7.444;2023-04-24T02:22:00;12.20;99.90
31661;DHT22;18267;52.234;7.444;2023-04-24T02:24:26;12.20;99.90
31661;DHT22;18267;52.234;7.444;2023-04-24T02:26:51;12.20;99.90
31661;DHT22;18267;52.234;7.444;2023-04-24T02:29:17;12.20;99.90
31661;DHT22;18267;52.234;7.444;2023-04-24T02:31:43;12.30;99.90
31661;DHT22;18267;52.234;7.444;2023-04-24T02:34:09;12.30;99.90
31661;DHT22;18267;52.234;7.444;2023-04-24T02:36:35;12.20;99.90
31661;DHT22;18267;52.234;7.444;2023-04-24T02:39:01;12.20;99.90
31661;DHT22;18267;52.234;7.444;2023-04-24T02:41:27;12.20;99.90
31661;DHT22;18267;52.234;7.444;2023-04-24T02:43:58;12.20;99.90
31661;DHT22;18267;52.234;7.444;2023-04-24T02:46:24;12.20;99.90
31661;DHT22;18267;52.234;7.444;2023-04-24T02:48:49;12.10;99.90
31661;DHT22;18267;52.234;7.444;2023-04-24T02:51:15;12.10;99.90
31661;DHT22;18267;52.234;7.444;2023-04-24T02:53:41;12.10;99.90
31661;DHT22;18267;52.234;7.444;2023-04-24T02:56:06;12.10;99.90
31661;DHT22;18267;52.234;7.444;2023-04-24T02:58:32;12.10;99.90
31661;DHT22;18267;52.234;7.444;2023-04-24T03:00:57;12.10;99.90
31661;DHT22;18267;52.234;7.444;2023-04-24T03:03:23;12.00;99.90
31661;DHT22;18267;52.234;7.444;2023-04-24T03:05:49;12.10;99.90
31661;DHT22;18267;52.234;7.444;2023-04-24T03:08:16;12.10;99.90
31661;DHT22;18267;52.234;7.444;2023-04-24T03:10:41;12.00;99.90
31661;DHT22;18267;52.234;7.444;2023-04-24T03:13:07;12.00;99.90
31661;DHT22;18267;52.234;7.444;2023-04-24T03:15:32;12.00;99.90
31661;DHT22;18267;52.234;7.444;2023-04-24T03:17:58;12.00;99.90
31661;DHT22;18267;52.234;7.444;2023-04-24T03:20:24;11.90;99.90
31661;DHT22;18267;52.234;7.444;2023-04-24T03:22:50;12.00;99.90
31661;DHT22;18267;52.234;7.444;2023-04-24T03:25:15;12.10;99.90
31661;DHT22;18267;52.234;7.444;2023-04-24T03:27:41;12.20;99.90
31661;DHT22;18267;52.234;7.444;2023-04-24T03:30:07;12.10;99.90
31661;DHT22;18267;52.234;7.444;2023-04-24T03:32:33;12.00;99.90
31661;DHT22;18267;52.234;7.444;2023-04-24T03:34:58;11.90;99.90
31661;DHT22;18267;52.234;7.444;2023-04-24T03:37:24;11.80;99.90
31661;DHT22;18267;52.234;7.444;2023-04-24T03:39:49;11.70;99.90
31661;DHT22;18267;52.234;7.444;2023-04-24T03:42:15;11.80;99.90
31661;DHT22;18267;52.234;7.444;2023-04-24T03:44:41;11.80;99.90
31661;DHT22;18267;52.234;7.444;2023-04-24T03:47:07;11.90;99.90
31661;DHT22;18267;52.234;7.444;2023-04-24T03:49:33;11.90;99.90
31661;DHT22;18267;52.234;7.444;2023-04-24T03:51:58;11.80;99.90
31661;DHT22;18267;52.234;7.444;2023-04-24T03:54:24;11.80;99.90
31661;DHT22;18267;52.234;7.444;2023-04-24T03:56:50;11.80;99.90
31661;DHT22;18267;52.234;7.444;2023-04-24T03:59:15;11.80;99.90
31661;DHT22;18267;52.234;7.444;2023-04-24T04:01:41;11.90;99.90
31661;DHT22;18267;52.234;7.444;2023-04-24T04:04:06;11.90;99.90
31661;DHT22;18267;52.234;7.444;2023-04-24T04:06:33;11.80;99.90
31661;DHT22;18267;52.234;7.444;2023-04-24T04:08:58;11.90;99.90
31661;DHT22;18267;52.234;7.444;2023-04-24T04:11:24;11.90;99.90
31661;DHT22;18267;52.234;7.444;2023-04-24T04:13:50;11.90;99.90
31661;DHT22;18267;52.234;7.444;2023-04-24T04:16:16;11.90;99.90
31661;DHT22;18267;52.234;7.444;2023-04-24T04:18:44;11.90;99.90
31661;DHT22;18267;52.234;7.444;2023-04-24T04:21:10;11.90;99.90
31661;DHT22;18267;52.234;7.444;2023-04-24T04:23:36;11.90;99.90
31661;DHT22;18267;52.234;7.444;2023-04-24T04:26:03;11.80;99.90
31661;DHT22;18267;52.234;7.444;2023-04-24T04:28:29;11.80;99.90
31661;DHT22;18267;52.234;7.444;2023-04-24T04:30:56;11.70;99.90
31661;DHT22;18267;52.234;7.444;2023-04-24T04:33:23;11.80;99.90
31661;DHT22;18267;52.234;7.444;2023-04-24T04:35:48;11.90;99.90
31661;DHT22;18267;52.234;7.444;2023-04-24T04:38:15;11.80;99.90
31661;DHT22;18267;52.234;7.444;2023-04-24T04:40:42;11.80;99.90
31661;DHT22;18267;52.234;7.444;2023-04-24T04:43:07;11.80;99.90
31661;DHT22;18267;52.234;7.444;2023-04-24T04:45:33;11.80;99.90
31661;DHT22;18267;52.234;7.444;2023-04-24T04:48:00;11.90;99.90
31661;DHT22;18267;52.234;7.444;2023-04-24T04:50:26;11.70;99.90
31661;DHT22;18267;52.234;7.444;2023-04-24T04:52:52;11.80;99.90
31661;DHT22;18267;52.234;7.444;2023-04-24T04:55:18;11.70;99.90
31661;DHT22;18267;52.234;7.444;2023-04-24T04:57:45;11.80;99.90
31661;DHT22;18267;52.234;7.444;2023-04-24T05:00:11;11.80;99.90
31661;DHT22;18267;52.234;7.444;2023-04-24T05:02:37;11.80;99.90
31661;DHT22;18267;52.234;7.444;2023-04-24T05:05:03;11.80;99.90
31661;DHT22;18267;52.234;7.444;2023-04-24T05:07:29;11.80;99.90
31661;DHT22;18267;52.234;7.444;2023-04-24T05:09:54;11.80;99.90
31661;DHT22;18267;52.234;7.444;2023-04-24T05:12:20;11.80;99.90
31661;DHT22;18267;52.234;7.444;2023-04-24T05:14:47;11.90;99.90
31661;DHT22;18267;52.234;7.444;2023-04-24T05:17:13;12.00;99.90
31661;DHT22;18267;52.234;7.444;2023-04-24T05:19:39;11.90;99.90
31661;DHT22;18267;52.234;7.444;2023-04-24T05:22:04;12.00;99.90
31661;DHT22;18267;52.234;7.444;2023-04-24T05:24:33;12.00;99.90
31661;DHT22;18267;52.234;7.444;2023-04-24T05:26:59;12.00;99.90
31661;DHT22;18267;52.234;7.444;2023-04-24T05:29:25;12.00;99.90
31661;DHT22;18267;52.234;7.444;2023-04-24T05:31:51;12.10;99.90
31661;DHT22;18267;52.234;7.444;2023-04-24T05:34:17;12.10;99.90
31661;DHT22;18267;52.234;7.444;2023-04-24T05:36:43;12.10;99.90
31661;DHT22;18267;52.234;7.444;2023-04-24T05:39:08;12.10;99.90
31661;DHT22;18267;52.234;7.444;2023-04-24T05:41:34;12.10;99.90
31661;DHT22;18267;52.234;7.444;2023-04-24T05:44:00;12.10;99.90
31661;DHT22;18267;52.234;7.444;2023-04-24T05:46:26;12.10;99.90
31661;DHT22;18267;52.234;7.444;2023-04-24T05:48:51;12.20;99.90
31661;DHT22;18267;52.234;7.444;2023-04-24T05:51:17;12.30;99.90
31661;DHT22;18267;52.234;7.444;2023-04-24T05:53:42;12.30;99.90
31661;DHT22;18267;52.234;7.444;2023-04-24T05:56:08;12.20;99.90
31661;DHT22;18267;52.234;7.444;2023-04-24T05:58:33;12.20;99.90
31661;DHT22;18267;52.234;7.444;2023-04-24T06:00:59;12.20;99.90
31661;DHT22;18267;52.234;7.444;2023-04-24T06:03:26;12.20;99.90
31661;DHT22;18267;52.234;7.444;2023-04-24T06:05:53;12.20;99.90
31661;DHT22;18267;52.234;7.444;2023-04-24T06:08:20;12.30;99.90
31661;DHT22;18267;52.234;7.444;2023-04-24T06:10:46;12.30;99.90
31661;DHT22;18267;52.234;7.444;2023-04-24T06:13:11;12.30;99.90
31661;DHT22;18267;52.234;7.444;2023-04-24T06:15:37;12.10;99.90
31661;DHT22;18267;52.234;7.444;2023-04-24T06:18:03;12.00;99.90
31661;DHT22;18267;52.234;7.444;2023-04-24T06:20:29;12.00;99.90
31661;DHT22;18267;52.234;7.444;2023-04-24T06:22:54;12.10;99.90
31661;DHT22;18267;52.234;7.444;2023-04-24T06:25:26;12.20;99.90
31661;DHT22;18267;52.234;7.444;2023-04-24T06:27:52;12.30;99.90
31661;DHT22;18267;52.234;7.444;2023-04-24T06:30:18;12.30;99.90
31661;DHT22;18267;52.234;7.444;2023-04-24T06:32:44;12.40;99.90
31661;DHT22;18267;52.234;7.444;2023-04-24T06:35:10;12.40;99.90
31661;DHT22;18267;52.234;7.444;2023-04-24T06:37:38;12.50;99.90
31661;DHT22;18267;52.234;7.444;2023-04-24T06:40:04;12.50;99.90
31661;DHT22;18267;52.234;7.444;2023-04-24T06:42:30;12.60;99.90
31661;DHT22;18267;52.234;7.444;2023-04-24T06:44:56;12.70;99.90
31661;DHT22;18267;52.234;7.444;2023-04-24T06:47:22;12.70;99.90
31661;DHT22;18267;52.234;7.444;2023-04-24T06:49:47;12.80;99.90
31661;DHT22;18267;52.234;7.444;2023-04-24T06:52:13;12.80;99.90
31661;DHT22;18267;52.234;7.444;2023-04-24T06:54:38;13.00;99.90
31661;DHT22;18267;52.234;7.444;2023-04-24T06:57:04;13.10;99.90
31661;DHT22;18267;52.234;7.444;2023-04-24T06:59:30;13.00;99.90
31661;DHT22;18267;52.234;7.444;2023-04-24T07:01:57;13.00;99.90
31661;DHT22;18267;52.234;7.444;2023-04-24T07:04:23;13.10;99.90
31661;DHT22;18267;52.234;7.444;2023-04-24T07:06:50;12.90;99.90
31661;DHT22;18267;52.234;7.444;2023-04-24T07:09:16;12.90;99.90
31661;DHT22;18267;52.234;7.444;2023-04-24T07:11:44;12.80;99.90
31661;DHT22;18267;52.234;7.444;2023-04-24T07:14:10;12.80;99.90
31661;DHT22;18267;52.234;7.444;2023-04-24T07:16:35;12.70;99.90
31661;DHT22;18267;52.234;7.444;2023-04-24T07:19:01;12.70;99.90
31661;DHT22;18267;52.234;7.444;2023-04-24T07:21:26;12.80;99.90
31661;DHT22;18267;52.234;7.444;2023-04-24T07:23:53;12.70;99.90
31661;DHT22;18267;52.234;7.444;2023-04-24T07:26:20;12.80;99.90
31661;DHT22;18267;52.234;7.444;2023-04-24T07:28:46;12.90;99.90
31661;DHT22;18267;52.234;7.444;2023-04-24T07:31:11;12.90;99.90
31661;DHT22;18267;52.234;7.444;2023-04-24T07:33:37;13.10;99.90
31661;DHT22;18267;52.234;7.444;2023-04-24T07:36:04;13.30;99.90
31661;DHT22;18267;52.234;7.444;2023-04-24T07:38:30;13.20;99.90
31661;DHT22;18267;52.234;7.444;2023-04-24T07:41:01;13.10;99.90
31661;DHT22;18267;52.234;7.444;2023-04-24T07:43:26;13.10;99.90
31661;DHT22;18267;52.234;7.444;2023-04-24T07:45:52;13.00;99.90
31661;DHT22;18267;52.234;7.444;2023-04-24T07:48:18;12.90;99.90
31661;DHT22;18267;52.234;7.444;2023-04-24T07:50:44;12.90;99.90
31661;DHT22;18267;52.234;7.444;2023-04-24T07:53:10;13.00;99.90
31661;DHT22;18267;52.234;7.444;2023-04-24T07:55:35;12.90;99.90
31661;DHT22;18267;52.234;7.444;2023-04-24T07:58:01;13.00;99.90
31661;DHT22;18267;52.234;7.444;2023-04-24T08:00:27;13.00;99.90
31661;DHT22;18267;52.234;7.444;2023-04-24T08:02:52;13.10;99.90
31661;DHT22;18267;52.234;7.444;2023-04-24T08:05:18;13.00;99.90
31661;DHT22;18267;52.234;7.444;2023-04-24T08:07:44;13.10;99.90
31661;DHT22;18267;52.234;7.444;2023-04-24T08:10:11;13.20;99.90
31661;DHT22;18267;52.234;7.444;2023-04-24T08:12:37;13.50;99.90
31661;DHT22;18267;52.234;7.444;2023-04-24T08:15:04;13.40;99.90
31661;DHT22;18267;52.234;7.444;2023-04-24T08:17:29;13.50;99.90
31661;DHT22;18267;52.234;7.444;2023-04-24T08:19:55;13.50;99.90
31661;DHT22;18267;52.234;7.444;2023-04-24T08:22:27;13.50;99.90
31661;DHT22;18267;52.234;7.444;2023-04-24T08:24:52;13.40;99.90
31661;DHT22;18267;52.234;7.444;2023-04-24T08:27:18;13.30;99.90
31661;DHT22;18267;52.234;7.444;2023-04-24T08:29:43;13.20;99.90
31661;DHT22;18267;52.234;7.444;2023-04-24T08:32:09;13.20;99.90
31661;DHT22;18267;52.234;7.444;2023-04-24T08:34:35;13.20;99.90
31661;DHT22;18267;52.234;7.444;2023-04-24T08:37:00;13.20;99.90
31661;DHT22;18267;52.234;7.444;2023-04-24T08:39:26;13.30;99.90
31661;DHT22;18267;52.234;7.444;2023-04-24T08:41:52;13.10;99.90
31661;DHT22;18267;52.234;7.444;2023-04-24T08:44:19;13.00;99.90
31661;DHT22;18267;52.234;7.444;2023-04-24T08:46:47;12.90;99.90
31661;DHT22;18267;52.234;7.444;2023-04-24T08:49:15;12.70;99.90
31661;DHT22;18267;52.234;7.444;2023-04-24T08:51:44;12.60;99.90
31661;DHT22;18267;52.234;7.444;2023-04-24T08:54:11;12.50;99.90
31661;DHT22;18267;52.234;7.444;2023-04-24T08:56:38;12.30;99.90
31661;DHT22;18267;52.234;7.444;2023-04-24T08:59:06;12.30;99.90
31661;DHT22;18267;52.234;7.444;2023-04-24T09:01:32;12.40;99.90
31661;DHT22;18267;52.234;7.444;2023-04-24T09:04:06;12.30;99.90
31661;DHT22;18267;52.234;7.444;2023-04-24T09:06:32;12.40;99.90
31661;DHT22;18267;52.234;7.444;2023-04-24T09:09:01;12.40;99.90
31661;DHT22;18267;52.234;7.444;2023-04-24T09:11:27;12.30;99.90
31661;DHT22;18267;52.234;7.444;2023-04-24T09:13:56;12.30;99.90
31661;DHT22;18267;52.234;7.444;2023-04-24T09:16:22;12.40;99.90
31661;DHT22;18267;52.234;7.444;2023-04-24T09:18:50;12.40;99.90
31661;DHT22;18267;52.234;7.444;2023-04-24T09:21:15;12.50;99.90
31661;DHT22;18267;52.234;7.444;2023-04-24T09:23:41;12.60;99.90
31661;DHT22;18267;52.234;7.444;2023-04-24T09:26:15;12.60;99.90
31661;DHT22;18267;52.234;7.444;2023-04-24T09:28:42;12.60;99.90
31661;DHT22;18267;52.234;7.444;2023-04-24T09:31:17;12.60;99.90
31661;DHT22;18267;52.234;7.444;2023-04-24T09:34:03;12.60;99.90
31661;DHT22;18267;52.234;7.444;2023-04-24T09:36:36;12.60;99.90
31661;DHT22;18267;52.234;7.444;2023-04-24T09:39:07;12.60;99.90
31661;DHT22;18267;52.234;7.444;2023-04-24T09:41:52;12.50;99.90
31661;DHT22;18267;52.234;7.444;2023-04-24T09:44:23;12.40;99.90
31661;DHT22;18267;52.234;7.444;2023-04-24T09:46:54;12.30;99.90
31661;DHT22;18267;52.234;7.444;2023-04-24T09:49:29;12.40;99.90
31661;DHT22;18267;52.234;7.444;2023-04-24T09:52:07;12.30;99.90
31661;DHT22;18267;52.234;7.444;2023-04-24T09:54:35;12.20;99.90
31661;DHT22;18267;52.234;7.444;2023-04-24T09:57:02;12.00;99.90
31661;DHT22;18267;52.234;7.444;2023-04-24T09:59:28;12.00;99.90
31661;DHT22;18267;52.234;7.444;2023-04-24T10:01:56;12.00;99.90
31661;DHT22;18267;52.234;7.444;2023-04-24T10:04:29;11.90;99.90
31661;DHT22;18267;52.234;7.444;2023-04-24T10:07:08;11.80;99.90
31661;DHT22;18267;52.234;7.444;2023-04-24T10:09:43;11.80;99.90
31661;DHT22;18267;52.234;7.444;2023-04-24T10:12:15;11.90;99.90
31661;DHT22;18267;52.234;7.444;2023-04-24T10:14:46;11.80;99.90
31661;DHT22;18267;52.234;7.444;2023-04-24T10:17:15;12.00;99.90
31661;DHT22;18267;52.234;7.444;2023-04-24T10:19:51;12.00;99.90
31661;DHT22;18267;52.234;7.444;2023-04-24T10:22:19;12.00;99.90
31661;DHT22;18267;52.234;7.444;2023-04-24T10:24:48;12.00;99.90
31661;DHT22;18267;52.234;7.444;2023-04-24T10:27:19;12.00;99.90
31661;DHT22;18267;52.234;7.444;2023-04-24T10:29:47;11.90;99.90
31661;DHT22;18267;52.234;7.444;2023-04-24T10:32:13;11.80;99.90
31661;DHT22;18267;52.234;7.444;2023-04-24T10:34:41;11.70;99.90
31661;DHT22;18267;52.234;7.444;2023-04-24T10:37:08;11.60;99.90
31661;DHT22;18267;52.234;7.444;2023-04-24T10:39:38;11.30;99.90
31661;DHT22;18267;52.234;7.444;2023-04-24T10:42:17;11.30;99.90
31661;DHT22;18267;52.234;7.444;2023-04-24T10:44:53;11.30;99.90
31661;DHT22;18267;52.234;7.444;2023-04-24T10:47:20;11.20;99.90
31661;DHT22;18267;52.234;7.444;2023-04-24T10:49:47;11.20;99.90
31661;DHT22;18267;52.234;7.444;2023-04-24T10:52:18;11.20;99.90
31661;DHT22;18267;52.234;7.444;2023-04-24T10:54:47;11.10;99.90
31661;DHT22;18267;52.234;7.444;2023-04-24T10:57:28;11.30;99.90
31661;DHT22;18267;52.234;7.444;2023-04-24T11:00:18;11.20;99.90
31661;DHT22;18267;52.234;7.444;2023-04-24T11:02:48;11.20;99.90
31661;DHT22;18267;52.234;7.444;2023-04-24T11:05:16;11.20;99.90
31661;DHT22;18267;52.234;7.444;2023-04-24T11:10:44;11.50;99.90
31661;DHT22;18267;52.234;7.444;2023-04-24T11:13:21;11.40;99.90
31661;DHT22;18267;52.234;7.444;2023-04-24T11:19:17;11.50;99.90
31661;DHT22;18267;52.234;7.444;2023-04-24T11:21:50;11.70;99.90
31661;DHT22;18267;52.234;7.444;2023-04-24T11:25:12;11.80;99.90
31661;DHT22;18267;52.234;7.444;2023-04-24T11:27:23;12.10;99.90
31661;DHT22;18267;52.234;7.444;2023-04-24T11:30:02;12.20;99.90
31661;DHT22;18267;52.234;7.444;2023-04-24T11:35:19;12.50;99.90
31661;DHT22;18267;52.234;7.444;2023-04-24T11:37:52;12.60;99.90
31661;DHT22;18267;52.234;7.444;2023-04-24T11:40:20;12.60;99.90
31661;DHT22;18267;52.234;7.444;2023-04-24T11:42:55;12.50;99.90
31661;DHT22;18267;52.234;7.444;2023-04-24T11:45:26;12.30;99.90
31661;DHT22;18267;52.234;7.444;2023-04-24T11:47:54;12.30;99.90
31661;DHT22;18267;52.234;7.444;2023-04-24T11:50:28;12.30;99.90
31661;DHT22;18267;52.234;7.444;2023-04-24T11:52:57;12.10;99.90
31661;DHT22;18267;52.234;7.444;2023-04-24T11:55:27;11.70;99.90
31661;DHT22;18267;52.234;7.444;2023-04-24T11:57:57;11.60;99.90
31661;DHT22;18267;52.234;7.444;2023-04-24T12:00:27;11.50;99.90
31661;DHT22;18267;52.234;7.444;2023-04-24T12:05:35;11.30;99.90
31661;DHT22;18267;52.234;7.444;2023-04-24T12:08:28;11.20;99.90
31661;DHT22;18267;52.234;7.444;2023-04-24T12:10:54;11.20;99.90
31661;DHT22;18267;52.234;7.444;2023-04-24T12:13:21;11.40;99.90
31661;DHT22;18267;52.234;7.444;2023-04-24T12:15:50;11.60;99.90
31661;DHT22;18267;52.234;7.444;2023-04-24T12:18:23;11.40;99.90
31661;DHT22;18267;52.234;7.444;2023-04-24T12:20:49;11.50;99.90
31661;DHT22;18267;52.234;7.444;2023-04-24T12:23:15;11.60;99.90
31661;DHT22;18267;52.234;7.444;2023-04-24T12:25:46;11.60;99.90
31661;DHT22;18267;52.234;7.444;2023-04-24T12:28:12;11.60;99.90
31661;DHT22;18267;52.234;7.444;2023-04-24T12:30:43;11.50;99.90
31661;DHT22;18267;52.234;7.444;2023-04-24T12:33:22;11.70;99.90
31661;DHT22;18267;52.234;7.444;2023-04-24T12:35:53;11.80;99.90
31661;DHT22;18267;52.234;7.444;2023-04-24T12:38:23;11.90;99.90
31661;DHT22;18267;52.234;7.444;2023-04-24T12:41:05;12.00;99.90
31661;DHT22;18267;52.234;7.444;2023-04-24T12:43:36;11.90;99.90
31661;DHT22;18267;52.234;7.444;2023-04-24T12:46:05;11.90;99.90
31661;DHT22;18267;52.234;7.444;2023-04-24T12:48:31;12.00;99.90
31661;DHT22;18267;52.234;7.444;2023-04-24T12:50:59;11.90;99.90
31661;DHT22;18267;52.234;7.444;2023-04-24T12:53:27;12.00;99.90
31661;DHT22;18267;52.234;7.444;2023-04-24T12:55:53;12.40;99.90
31661;DHT22;18267;52.234;7.444;2023-04-24T12:58:20;12.40;99.90
31661;DHT22;18267;52.234;7.444;2023-04-24T13:00:47;12.60;99.90
31661;DHT22;18267;52.234;7.444;2023-04-24T13:03:13;12.80;99.90
31661;DHT22;18267;52.234;7.444;2023-04-24T13:05:52;12.90;99.90
31661;DHT22;18267;52.234;7.444;2023-04-24T13:08:22;12.90;99.90
31661;DHT22;18267;52.234;7.444;2023-04-24T13:10:49;12.90;99.90
31661;DHT22;18267;52.234;7.444;2023-04-24T13:13:20;12.70;99.90
31661;DHT22;18267;52.234;7.444;2023-04-24T13:15:56;12.40;99.90
31661;DHT22;18267;52.234;7.444;2023-04-24T13:18:41;12.30;99.90
31661;DHT22;18267;52.234;7.444;2023-04-24T13:21:08;12.00;99.90
31661;DHT22;18267;52.234;7.444;2023-04-24T13:23:38;12.00;99.90
31661;DHT22;18267;52.234;7.444;2023-04-24T13:26:15;12.10;99.90
31661;DHT22;18267;52.234;7.444;2023-04-24T13:28:45;11.90;99.90
31661;DHT22;18267;52.234;7.444;2023-04-24T13:31:26;12.00;99.90
31661;DHT22;18267;52.234;7.444;2023-04-24T13:34:02;12.20;99.90
31661;DHT22;18267;52.234;7.444;2023-04-24T13:36:39;12.30;99.90
31661;DHT22;18267;52.234;7.444;2023-04-24T13:39:09;12.50;99.90
31661;DHT22;18267;52.234;7.444;2023-04-24T13:41:43;12.50;99.90
31661;DHT22;18267;52.234;7.444;2023-04-24T13:44:18;12.80;99.90
31661;DHT22;18267;52.234;7.444;2023-04-24T13:46:48;12.80;99.90
31661;DHT22;18267;52.234;7.444;2023-04-24T13:49:23;12.70;99.90
31661;DHT22;18267;52.234;7.444;2023-04-24T13:51:57;12.60;99.90
31661;DHT22;18267;52.234;7.444;2023-04-24T13:54:24;12.40;99.90
31661;DHT22;18267;52.234;7.444;2023-04-24T13:56:55;12.30;99.90
31661;DHT22;18267;52.234;7.444;2023-04-24T13:59:22;12.10;99.90
31661;DHT22;18267;52.234;7.444;2023-04-24T14:01:48;11.80;99.90
31661;DHT22;18267;52.234;7.444;2023-04-24T14:04:13;11.70;99.90
31661;DHT22;18267;52.234;7.444;2023-04-24T14:06:40;11.70;99.90
31661;DHT22;18267;52.234;7.444;2023-04-24T14:09:06;11.90;99.90
31661;DHT22;18267;52.234;7.444;2023-04-24T14:11:35;12.00;99.90
31661;DHT22;18267;52.234;7.444;2023-04-24T14:14:00;11.90;99.90
31661;DHT22;18267;52.234;7.444;2023-04-24T14:16:26;11.80;99.90
31661;DHT22;18267;52.234;7.444;2023-04-24T14:18:54;11.80;99.90
31661;DHT22;18267;52.234;7.444;2023-04-24T14:21:23;11.90;99.90
31661;DHT22;18267;52.234;7.444;2023-04-24T14:24:08;11.90;99.90
31661;DHT22;18267;52.234;7.444;2023-04-24T14:26:35;11.80;99.90
31661;DHT22;18267;52.234;7.444;2023-04-24T14:29:01;11.70;99.90
31661;DHT22;18267;52.234;7.444;2023-04-24T14:31:27;11.70;99.90
31661;DHT22;18267;52.234;7.444;2023-04-24T14:33:54;11.80;99.90
31661;DHT22;18267;52.234;7.444;2023-04-24T14:36:19;11.70;99.90
31661;DHT22;18267;52.234;7.444;2023-04-24T14:38:51;11.60;99.90
31661;DHT22;18267;52.234;7.444;2023-04-24T14:41:47;11.60;99.90
31661;DHT22;18267;52.234;7.444;2023-04-24T14:44:18;12.00;99.90
31661;DHT22;18267;52.234;7.444;2023-04-24T14:46:45;12.20;99.90
31661;DHT22;18267;52.234;7.444;2023-04-24T14:49:13;12.40;99.90
31661;DHT22;18267;52.234;7.444;2023-04-24T14:51:45;12.40;99.90
31661;DHT22;18267;52.234;7.444;2023-04-24T14:54:11;12.30;99.90
31661;DHT22;18267;52.234;7.444;2023-04-24T14:56:37;12.20;99.90
31661;DHT22;18267;52.234;7.444;2023-04-24T14:59:06;12.20;99.90
31661;DHT22;18267;52.234;7.444;2023-04-24T15:01:32;12.10;99.90
31661;DHT22;18267;52.234;7.444;2023-04-24T15:03:59;12.00;99.90
31661;DHT22;18267;52.234;7.444;2023-04-24T15:06:25;12.00;99.90
31661;DHT22;18267;52.234;7.444;2023-04-24T15:08:50;12.20;99.90
31661;DHT22;18267;52.234;7.444;2023-04-24T15:11:16;12.50;99.90
31661;DHT22;18267;52.234;7.444;2023-04-24T15:13:42;12.80;99.90
31661;DHT22;18267;52.234;7.444;2023-04-24T15:16:08;12.80;99.90
31661;DHT22;18267;52.234;7.444;2023-04-24T15:18:33;12.80;99.90
31661;DHT22;18267;52.234;7.444;2023-04-24T15:20:59;12.60;99.90
31661;DHT22;18267;52.234;7.444;2023-04-24T15:23:24;12.50;99.90
31661;DHT22;18267;52.234;7.444;2023-04-24T15:25:50;12.20;99.90
31661;DHT22;18267;52.234;7.444;2023-04-24T15:28:15;12.30;99.90
31661;DHT22;18267;52.234;7.444;2023-04-24T15:30:43;12.30;99.90
31661;DHT22;18267;52.234;7.444;2023-04-24T15:33:08;12.20;99.90
31661;DHT22;18267;52.234;7.444;2023-04-24T15:35:34;11.70;99.90
31661;DHT22;18267;52.234;7.444;2023-04-24T15:38:01;11.10;99.90
31661;DHT22;18267;52.234;7.444;2023-04-24T15:40:27;11.00;99.90
31661;DHT22;18267;52.234;7.444;2023-04-24T15:42:55;10.90;99.90
31661;DHT22;18267;52.234;7.444;2023-04-24T15:45:21;11.00;99.90